»·PEaware :: N2102W KFUL-KTOA

N2102W :: KFUL-KTOA

FLIGHT INFORMATION

Flight Status: Arrived
Operator: Privately registered:
United States
More flights under this callsign
Pilot: Eric G. (5941)
Aircraft: CESSNA 172 SKYHAWK
(C172)
More flights by this aircraft type
Origin: KFUL Fullerton Mun
United States
Destination: KTOA Zamperini
United States
More flights between these airports :: More routes between these airports
Route: +SLI
File this flight plan on PilotEdge
Remarks:
Altitude:
(Current/Filed)
4,000ft
Speed:
(Current/Filed)
120kts
Departed: 27-Dec-17 08:48 AM
Arrived: 27-Dec-17 09:24 AM
Distance/Time
Traveled:
19nm/0:36
Distance/Time
To Go:
Arrived

Flight Plot

Page will automatically refresh every two minutes.

Flight plan parsing failed; only flown route is shown


Map Options




Map Legend


Flown Route
Filed Route
Departure Airport
Arrival Airport
Navaid (VOR, NDB)
Fix

Horizontal Profiles

Position Reports

Time Latitude Longitude Heading Altitude Ground
Speed
27-Dec-17 08:30 33.870905 -117.978492 75 99ft 0kts
27-Dec-17 08:31 33.870905 -117.978492 75 99ft 0kts
27-Dec-17 08:32 33.870905 -117.978492 75 99ft 0kts
27-Dec-17 08:33 33.870905 -117.978492 75 99ft 0kts
27-Dec-17 08:34 33.870905 -117.978492 75 99ft 0kts
27-Dec-17 08:35 33.870905 -117.978492 75 99ft 0kts
27-Dec-17 08:36 33.870905 -117.978492 75 99ft 0kts
27-Dec-17 08:37 33.870905 -117.978492 75 99ft 0kts
27-Dec-17 08:38 33.870905 -117.978492 75 99ft 0kts
27-Dec-17 08:39 33.870905 -117.978492 75 99ft 0kts
27-Dec-17 08:40 33.870905 -117.978492 75 99ft 0kts
27-Dec-17 08:41 33.870905 -117.978492 75 99ft 0kts
27-Dec-17 08:42 33.870970 -117.978450 351 99ft 0kts
27-Dec-17 08:43 33.870970 -117.978450 351 99ft 0kts
27-Dec-17 08:44 33.870971 -117.978450 351 99ft 0kts
27-Dec-17 08:45 33.870971 -117.978451 351 99ft 0kts
27-Dec-17 08:46 33.870971 -117.978451 351 99ft 0kts
27-Dec-17 08:47 33.870972 -117.978451 351 99ft 0kts
27-Dec-17 08:48 33.871920 -117.978126 81 99ft 6kts
27-Dec-17 08:49 33.872396 -117.975720 75 99ft 6kts
27-Dec-17 08:50 33.872495 -117.975003 38 99ft 0kts
27-Dec-17 08:51 33.872607 -117.974809 4 99ft 0kts
27-Dec-17 08:52 33.872607 -117.974809 4 99ft 0kts
27-Dec-17 08:53 33.872608 -117.974809 4 99ft 0kts
27-Dec-17 08:54 33.872469 -117.977590 256 99ft 52kts
27-Dec-17 08:55 33.861205 -117.994342 176 888ft 76kts
27-Dec-17 08:56 33.842812 -117.975112 131 1710ft 103kts
27-Dec-17 08:57 33.821229 -117.950885 138 2469ft 111kts
27-Dec-17 08:58 33.797357 -117.927104 139 3152ft 106kts
27-Dec-17 08:59 33.774818 -117.905020 139 3765ft 107kts
27-Dec-17 09:00 33.749775 -117.880764 139 4007ft 124kts
27-Dec-17 09:01 33.718145 -117.876405 198 4006ft 129kts
27-Dec-17 09:02 33.684432 -117.891595 198 3993ft 127kts
27-Dec-17 09:03 33.651631 -117.906540 200 3999ft 125kts
27-Dec-17 09:04 33.635536 -117.941041 248 4002ft 121kts
27-Dec-17 09:05 33.623444 -117.978743 248 4003ft 120kts
27-Dec-17 09:06 33.612075 -118.016453 251 4003ft 120kts
27-Dec-17 09:07 33.601729 -118.054638 251 4005ft 121kts
27-Dec-17 09:08 33.579936 -118.081606 192 4010ft 120kts
27-Dec-17 09:09 33.559936 -118.102408 315 4005ft 119kts
27-Dec-17 09:10 33.591381 -118.099679 32 4003ft 117kts
27-Dec-17 09:11 33.597681 -118.063812 104 4016ft 116kts
27-Dec-17 09:12 33.570713 -118.055034 190 4022ft 120kts
27-Dec-17 09:13 33.541129 -118.069116 260 4016ft 121kts
27-Dec-17 09:14 33.568182 -118.078494 5 4022ft 118kts
27-Dec-17 09:15 33.601024 -118.076516 7 4019ft 118kts
27-Dec-17 09:16 33.591805 -118.060332 188 4030ft 119kts
27-Dec-17 09:17 33.559772 -118.070458 232 4013ft 121kts
27-Dec-17 09:18 33.581150 -118.085821 324 4017ft 120kts
27-Dec-17 09:19 33.594695 -118.122525 291 4021ft 122kts
27-Dec-17 09:20 33.614527 -118.155478 323 4023ft 125kts
27-Dec-17 09:21 33.644474 -118.175657 5 3685ft 134kts
27-Dec-17 09:22 33.680265 -118.173526 332 2837ft 127kts
27-Dec-17 09:23 33.710287 -118.194835 307 2249ft 122kts
27-Dec-17 09:24 33.728376 -118.225316 311 1999ft 111kts
27-Dec-17 09:25 33.746233 -118.252670 303 2178ft 99kts
27-Dec-17 09:26 33.764136 -118.278297 304 1927ft 88kts
27-Dec-17 09:27 33.776947 -118.299113 309 1631ft 74kts
27-Dec-17 09:28 33.790045 -118.318194 307 910ft 74kts
27-Dec-17 09:29 33.801694 -118.336107 307 113ft 48kts
27-Dec-17 09:30 33.805504 -118.342458 288 106ft 10kts
27-Dec-17 09:31 33.805835 -118.345143 214 106ft 11kts
27-Dec-17 09:32 33.804876 -118.346381 41 106ft 0kts
27-Dec-17 09:33 33.804876 -118.346381 41 106ft 0kts
27-Dec-17 09:34 33.804876 -118.346381 41 106ft 0kts

Navigation Log

Ident Type
Flight plan parsing failed, navigation log unavailable